sensor_id;sensor_type;location;lat;lon;timestamp;P1;durP1;ratioP1;P2;durP2;ratioP2
12076;SDS011;12420;42.676;23.262;2023-12-07T00:00:11;27.93;;;20.67;;
12076;SDS011;12420;42.676;23.262;2023-12-07T00:02:38;30.30;;;20.10;;
12076;SDS011;12420;42.676;23.262;2023-12-07T00:05:05;25.60;;;18.93;;
12076;SDS011;12420;42.676;23.262;2023-12-07T00:07:33;25.53;;;18.40;;
12076;SDS011;12420;42.676;23.262;2023-12-07T00:09:59;27.60;;;19.20;;
12076;SDS011;12420;42.676;23.262;2023-12-07T00:12:26;30.60;;;19.97;;
12076;SDS011;12420;42.676;23.262;2023-12-07T00:14:53;27.90;;;19.13;;
12076;SDS011;12420;42.676;23.262;2023-12-07T00:17:21;28.97;;;20.07;;
12076;SDS011;12420;42.676;23.262;2023-12-07T00:19:49;28.77;;;20.10;;
12076;SDS011;12420;42.676;23.262;2023-12-07T00:22:18;30.33;;;19.23;;
12076;SDS011;12420;42.676;23.262;2023-12-07T00:24:45;28.47;;;19.27;;
12076;SDS011;12420;42.676;23.262;2023-12-07T00:27:13;26.73;;;18.97;;
12076;SDS011;12420;42.676;23.262;2023-12-07T00:29:40;27.93;;;19.07;;
12076;SDS011;12420;42.676;23.262;2023-12-07T00:32:07;26.10;;;19.03;;
12076;SDS011;12420;42.676;23.262;2023-12-07T00:34:35;28.43;;;19.47;;
12076;SDS011;12420;42.676;23.262;2023-12-07T00:37:02;29.00;;;18.80;;
12076;SDS011;12420;42.676;23.262;2023-12-07T00:39:29;27.57;;;19.07;;
12076;SDS011;12420;42.676;23.262;2023-12-07T00:41:56;27.13;;;19.37;;
12076;SDS011;12420;42.676;23.262;2023-12-07T00:44:23;27.97;;;19.40;;
12076;SDS011;12420;42.676;23.262;2023-12-07T00:46:50;31.13;;;20.27;;
12076;SDS011;12420;42.676;23.262;2023-12-07T00:49:16;30.07;;;19.73;;
12076;SDS011;12420;42.676;23.262;2023-12-07T00:51:45;26.97;;;20.00;;
12076;SDS011;12420;42.676;23.262;2023-12-07T00:54:13;30.73;;;19.23;;
12076;SDS011;12420;42.676;23.262;2023-12-07T00:56:40;28.23;;;19.57;;
12076;SDS011;12420;42.676;23.262;2023-12-07T00:59:07;30.33;;;19.97;;
12076;SDS011;12420;42.676;23.262;2023-12-07T01:01:34;30.43;;;20.57;;
12076;SDS011;12420;42.676;23.262;2023-12-07T01:04:03;30.07;;;20.37;;
12076;SDS011;12420;42.676;23.262;2023-12-07T01:06:30;31.53;;;19.67;;
12076;SDS011;12420;42.676;23.262;2023-12-07T01:08:58;30.37;;;21.33;;
12076;SDS011;12420;42.676;23.262;2023-12-07T01:11:25;32.20;;;20.20;;
12076;SDS011;12420;42.676;23.262;2023-12-07T01:13:52;30.30;;;20.87;;
12076;SDS011;12420;42.676;23.262;2023-12-07T01:16:19;41.90;;;23.97;;
12076;SDS011;12420;42.676;23.262;2023-12-07T01:18:46;38.17;;;22.97;;
12076;SDS011;12420;42.676;23.262;2023-12-07T01:21:14;36.23;;;23.10;;
12076;SDS011;12420;42.676;23.262;2023-12-07T01:23:40;34.90;;;23.23;;
12076;SDS011;12420;42.676;23.262;2023-12-07T01:26:09;37.97;;;23.20;;
12076;SDS011;12420;42.676;23.262;2023-12-07T01:28:36;34.67;;;23.23;;
12076;SDS011;12420;42.676;23.262;2023-12-07T01:31:02;31.17;;;20.87;;
12076;SDS011;12420;42.676;23.262;2023-12-07T01:33:29;31.07;;;20.57;;
12076;SDS011;12420;42.676;23.262;2023-12-07T01:35:56;34.90;;;22.40;;
12076;SDS011;12420;42.676;23.262;2023-12-07T01:38:23;35.20;;;21.83;;
12076;SDS011;12420;42.676;23.262;2023-12-07T01:40:50;35.03;;;22.27;;
12076;SDS011;12420;42.676;23.262;2023-12-07T01:43:18;45.83;;;27.60;;
12076;SDS011;12420;42.676;23.262;2023-12-07T01:45:45;36.63;;;22.53;;
12076;SDS011;12420;42.676;23.262;2023-12-07T01:48:12;36.57;;;23.57;;
12076;SDS011;12420;42.676;23.262;2023-12-07T01:50:39;36.27;;;22.50;;
12076;SDS011;12420;42.676;23.262;2023-12-07T01:53:06;35.30;;;23.07;;
12076;SDS011;12420;42.676;23.262;2023-12-07T01:55:33;32.53;;;22.30;;
12076;SDS011;12420;42.676;23.262;2023-12-07T01:58:00;35.77;;;22.63;;
12076;SDS011;12420;42.676;23.262;2023-12-07T02:00:30;31.60;;;22.37;;
12076;SDS011;12420;42.676;23.262;2023-12-07T02:02:56;36.43;;;22.43;;
12076;SDS011;12420;42.676;23.262;2023-12-07T02:05:22;34.47;;;22.47;;
12076;SDS011;12420;42.676;23.262;2023-12-07T02:07:50;34.53;;;23.47;;
12076;SDS011;12420;42.676;23.262;2023-12-07T02:10:18;36.50;;;23.17;;
12076;SDS011;12420;42.676;23.262;2023-12-07T02:12:45;35.67;;;22.53;;
12076;SDS011;12420;42.676;23.262;2023-12-07T02:15:12;34.93;;;22.20;;
12076;SDS011;12420;42.676;23.262;2023-12-07T02:17:43;34.83;;;21.97;;
12076;SDS011;12420;42.676;23.262;2023-12-07T02:20:17;34.10;;;22.47;;
12076;SDS011;12420;42.676;23.262;2023-12-07T02:22:52;35.57;;;24.00;;
12076;SDS011;12420;42.676;23.262;2023-12-07T02:25:23;33.80;;;23.37;;
12076;SDS011;12420;42.676;23.262;2023-12-07T02:27:56;35.80;;;23.73;;
12076;SDS011;12420;42.676;23.262;2023-12-07T02:30:23;33.37;;;23.20;;
12076;SDS011;12420;42.676;23.262;2023-12-07T02:32:50;37.30;;;25.00;;
12076;SDS011;12420;42.676;23.262;2023-12-07T02:35:17;33.53;;;22.97;;
12076;SDS011;12420;42.676;23.262;2023-12-07T02:37:44;32.57;;;22.20;;
12076;SDS011;12420;42.676;23.262;2023-12-07T02:40:14;28.43;;;20.23;;
12076;SDS011;12420;42.676;23.262;2023-12-07T02:42:43;32.17;;;20.90;;
12076;SDS011;12420;42.676;23.262;2023-12-07T02:45:12;28.17;;;18.60;;
12076;SDS011;12420;42.676;23.262;2023-12-07T02:47:40;29.47;;;19.93;;
12076;SDS011;12420;42.676;23.262;2023-12-07T02:50:08;29.90;;;19.97;;
12076;SDS011;12420;42.676;23.262;2023-12-07T02:52:35;26.97;;;17.63;;
12076;SDS011;12420;42.676;23.262;2023-12-07T02:55:03;25.60;;;17.90;;
12076;SDS011;12420;42.676;23.262;2023-12-07T02:57:31;25.83;;;17.93;;
12076;SDS011;12420;42.676;23.262;2023-12-07T02:59:58;21.50;;;15.70;;
12076;SDS011;12420;42.676;23.262;2023-12-07T03:02:27;24.77;;;16.97;;
12076;SDS011;12420;42.676;23.262;2023-12-07T03:04:53;23.53;;;16.67;;
12076;SDS011;12420;42.676;23.262;2023-12-07T03:07:20;22.83;;;16.13;;
12076;SDS011;12420;42.676;23.262;2023-12-07T03:09:47;21.33;;;14.57;;
12076;SDS011;12420;42.676;23.262;2023-12-07T03:12:14;22.40;;;16.20;;
12076;SDS011;12420;42.676;23.262;2023-12-07T03:14:41;20.17;;;15.10;;
12076;SDS011;12420;42.676;23.262;2023-12-07T03:17:07;22.07;;;15.23;;
12076;SDS011;12420;42.676;23.262;2023-12-07T03:19:38;20.60;;;15.20;;
12076;SDS011;12420;42.676;23.262;2023-12-07T03:22:06;19.27;;;13.93;;
12076;SDS011;12420;42.676;23.262;2023-12-07T03:24:33;17.40;;;13.20;;
12076;SDS011;12420;42.676;23.262;2023-12-07T03:27:00;19.67;;;13.97;;
12076;SDS011;12420;42.676;23.262;2023-12-07T03:29:27;29.03;;;19.17;;
12076;SDS011;12420;42.676;23.262;2023-12-07T03:31:54;17.97;;;12.97;;
12076;SDS011;12420;42.676;23.262;2023-12-07T03:34:21;21.07;;;14.20;;
12076;SDS011;12420;42.676;23.262;2023-12-07T03:36:49;19.77;;;13.17;;
12076;SDS011;12420;42.676;23.262;2023-12-07T03:39:16;19.23;;;13.67;;
12076;SDS011;12420;42.676;23.262;2023-12-07T03:41:46;16.43;;;12.93;;
12076;SDS011;12420;42.676;23.262;2023-12-07T03:44:13;18.90;;;12.93;;
12076;SDS011;12420;42.676;23.262;2023-12-07T03:46:40;17.33;;;13.40;;
12076;SDS011;12420;42.676;23.262;2023-12-07T03:49:07;20.23;;;13.30;;
12076;SDS011;12420;42.676;23.262;2023-12-07T03:51:34;17.80;;;13.20;;
12076;SDS011;12420;42.676;23.262;2023-12-07T03:54:03;17.47;;;13.67;;
12076;SDS011;12420;42.676;23.262;2023-12-07T03:56:32;17.37;;;13.37;;
12076;SDS011;12420;42.676;23.262;2023-12-07T03:58:59;18.97;;;13.60;;
12076;SDS011;12420;42.676;23.262;2023-12-07T04:01:26;17.70;;;13.57;;
12076;SDS011;12420;42.676;23.262;2023-12-07T04:03:55;19.77;;;14.30;;
12076;SDS011;12420;42.676;23.262;2023-12-07T04:06:24;17.67;;;13.17;;
12076;SDS011;12420;42.676;23.262;2023-12-07T04:08:51;20.03;;;14.00;;
12076;SDS011;12420;42.676;23.262;2023-12-07T04:11:19;17.77;;;13.40;;
12076;SDS011;12420;42.676;23.262;2023-12-07T04:13:46;18.77;;;13.47;;
12076;SDS011;12420;42.676;23.262;2023-12-07T04:16:14;19.50;;;13.67;;
12076;SDS011;12420;42.676;23.262;2023-12-07T04:18:41;18.13;;;13.23;;
12076;SDS011;12420;42.676;23.262;2023-12-07T04:21:08;20.73;;;13.10;;
12076;SDS011;12420;42.676;23.262;2023-12-07T04:23:35;17.57;;;12.70;;
12076;SDS011;12420;42.676;23.262;2023-12-07T04:26:01;18.27;;;13.10;;
12076;SDS011;12420;42.676;23.262;2023-12-07T04:28:30;18.23;;;13.80;;
12076;SDS011;12420;42.676;23.262;2023-12-07T04:30:57;19.83;;;14.47;;
12076;SDS011;12420;42.676;23.262;2023-12-07T04:33:24;20.27;;;14.37;;
12076;SDS011;12420;42.676;23.262;2023-12-07T04:35:50;20.07;;;14.67;;
12076;SDS011;12420;42.676;23.262;2023-12-07T04:38:17;18.20;;;14.70;;
12076;SDS011;12420;42.676;23.262;2023-12-07T04:40:44;21.33;;;14.83;;
12076;SDS011;12420;42.676;23.262;2023-12-07T04:43:11;20.87;;;14.80;;
12076;SDS011;12420;42.676;23.262;2023-12-07T04:45:39;21.43;;;15.90;;
12076;SDS011;12420;42.676;23.262;2023-12-07T04:48:06;20.73;;;15.40;;
12076;SDS011;12420;42.676;23.262;2023-12-07T04:50:33;23.37;;;16.60;;
12076;SDS011;12420;42.676;23.262;2023-12-07T04:53:00;20.73;;;16.23;;
12076;SDS011;12420;42.676;23.262;2023-12-07T04:55:27;23.53;;;16.60;;
12076;SDS011;12420;42.676;23.262;2023-12-07T04:57:53;23.57;;;17.17;;
12076;SDS011;12420;42.676;23.262;2023-12-07T05:00:20;24.17;;;18.10;;
12076;SDS011;12420;42.676;23.262;2023-12-07T05:02:49;23.17;;;17.27;;
12076;SDS011;12420;42.676;23.262;2023-12-07T05:05:16;21.53;;;15.87;;
12076;SDS011;12420;42.676;23.262;2023-12-07T05:07:42;23.83;;;17.47;;
12076;SDS011;12420;42.676;23.262;2023-12-07T05:10:09;24.00;;;17.43;;
12076;SDS011;12420;42.676;23.262;2023-12-07T05:12:36;23.53;;;18.17;;
12076;SDS011;12420;42.676;23.262;2023-12-07T05:15:03;22.33;;;17.37;;
12076;SDS011;12420;42.676;23.262;2023-12-07T05:17:32;22.37;;;16.57;;
12076;SDS011;12420;42.676;23.262;2023-12-07T05:20:00;23.27;;;16.57;;
12076;SDS011;12420;42.676;23.262;2023-12-07T05:22:27;21.80;;;16.67;;
12076;SDS011;12420;42.676;23.262;2023-12-07T05:24:54;20.57;;;16.20;;
12076;SDS011;12420;42.676;23.262;2023-12-07T05:27:21;21.77;;;16.80;;
12076;SDS011;12420;42.676;23.262;2023-12-07T05:29:48;23.13;;;16.80;;
12076;SDS011;12420;42.676;23.262;2023-12-07T05:32:14;21.30;;;16.20;;
12076;SDS011;12420;42.676;23.262;2023-12-07T05:34:41;20.23;;;16.00;;
12076;SDS011;12420;42.676;23.262;2023-12-07T05:37:10;19.67;;;15.50;;
12076;SDS011;12420;42.676;23.262;2023-12-07T05:39:37;18.23;;;14.03;;
12076;SDS011;12420;42.676;23.262;2023-12-07T05:42:04;17.03;;;13.43;;
12076;SDS011;12420;42.676;23.262;2023-12-07T05:44:32;15.93;;;12.80;;
12076;SDS011;12420;42.676;23.262;2023-12-07T05:46:59;14.17;;;11.00;;
12076;SDS011;12420;42.676;23.262;2023-12-07T05:49:26;16.67;;;13.33;;
12076;SDS011;12420;42.676;23.262;2023-12-07T05:51:52;17.70;;;13.70;;
12076;SDS011;12420;42.676;23.262;2023-12-07T05:54:20;17.37;;;13.83;;
12076;SDS011;12420;42.676;23.262;2023-12-07T05:56:48;16.43;;;13.67;;
12076;SDS011;12420;42.676;23.262;2023-12-07T05:59:15;17.50;;;14.20;;
12076;SDS011;12420;42.676;23.262;2023-12-07T06:01:41;19.53;;;14.20;;
12076;SDS011;12420;42.676;23.262;2023-12-07T06:04:09;17.43;;;14.37;;
12076;SDS011;12420;42.676;23.262;2023-12-07T06:06:37;20.97;;;15.73;;
12076;SDS011;12420;42.676;23.262;2023-12-07T06:09:04;19.87;;;14.87;;
12076;SDS011;12420;42.676;23.262;2023-12-07T06:11:33;18.73;;;14.43;;
12076;SDS011;12420;42.676;23.262;2023-12-07T06:14:00;15.80;;;13.33;;
12076;SDS011;12420;42.676;23.262;2023-12-07T06:16:31;20.50;;;16.03;;
12076;SDS011;12420;42.676;23.262;2023-12-07T06:18:58;20.03;;;14.60;;
12076;SDS011;12420;42.676;23.262;2023-12-07T06:21:24;20.90;;;15.40;;
12076;SDS011;12420;42.676;23.262;2023-12-07T06:23:53;18.27;;;14.63;;
12076;SDS011;12420;42.676;23.262;2023-12-07T06:26:20;22.57;;;16.00;;
12076;SDS011;12420;42.676;23.262;2023-12-07T06:28:48;20.70;;;16.00;;
12076;SDS011;12420;42.676;23.262;2023-12-07T06:31:15;18.30;;;13.40;;
12076;SDS011;12420;42.676;23.262;2023-12-07T06:33:45;19.17;;;13.60;;
12076;SDS011;12420;42.676;23.262;2023-12-07T06:36:17;16.53;;;13.13;;
12076;SDS011;12420;42.676;23.262;2023-12-07T06:38:44;19.70;;;12.20;;
12076;SDS011;12420;42.676;23.262;2023-12-07T06:41:11;25.93;;;18.20;;
12076;SDS011;12420;42.676;23.262;2023-12-07T06:43:38;20.27;;;15.03;;
12076;SDS011;12420;42.676;23.262;2023-12-07T06:46:06;19.77;;;13.03;;
12076;SDS011;12420;42.676;23.262;2023-12-07T06:48:33;14.77;;;11.03;;
12076;SDS011;12420;42.676;23.262;2023-12-07T06:51:00;13.97;;;11.73;;
12076;SDS011;12420;42.676;23.262;2023-12-07T06:53:27;15.43;;;10.80;;
12076;SDS011;12420;42.676;23.262;2023-12-07T06:55:54;16.87;;;11.83;;
12076;SDS011;12420;42.676;23.262;2023-12-07T06:58:21;12.90;;;10.70;;
12076;SDS011;12420;42.676;23.262;2023-12-07T07:00:48;18.40;;;13.03;;
12076;SDS011;12420;42.676;23.262;2023-12-07T07:03:17;21.67;;;15.17;;
12076;SDS011;12420;42.676;23.262;2023-12-07T07:05:44;25.87;;;17.43;;
12076;SDS011;12420;42.676;23.262;2023-12-07T07:08:10;22.60;;;14.87;;
12076;SDS011;12420;42.676;23.262;2023-12-07T07:10:37;17.13;;;11.67;;
12076;SDS011;12420;42.676;23.262;2023-12-07T07:13:04;16.90;;;12.57;;
12076;SDS011;12420;42.676;23.262;2023-12-07T07:15:31;16.87;;;12.37;;
12076;SDS011;12420;42.676;23.262;2023-12-07T07:17:58;14.07;;;8.97;;
12076;SDS011;12420;42.676;23.262;2023-12-07T07:20:27;11.70;;;8.30;;
12076;SDS011;12420;42.676;23.262;2023-12-07T07:22:54;9.83;;;8.20;;
12076;SDS011;12420;42.676;23.262;2023-12-07T07:25:21;11.53;;;8.80;;
12076;SDS011;12420;42.676;23.262;2023-12-07T07:27:48;14.10;;;10.53;;
12076;SDS011;12420;42.676;23.262;2023-12-07T07:30:15;14.83;;;10.80;;
12076;SDS011;12420;42.676;23.262;2023-12-07T07:32:42;13.73;;;10.23;;
12076;SDS011;12420;42.676;23.262;2023-12-07T07:35:08;12.77;;;9.07;;
12076;SDS011;12420;42.676;23.262;2023-12-07T07:37:38;21.50;;;14.93;;
12076;SDS011;12420;42.676;23.262;2023-12-07T07:40:06;26.30;;;16.70;;
12076;SDS011;12420;42.676;23.262;2023-12-07T07:42:36;29.40;;;17.33;;
12076;SDS011;12420;42.676;23.262;2023-12-07T07:45:05;18.20;;;11.90;;
12076;SDS011;12420;42.676;23.262;2023-12-07T07:47:33;23.30;;;14.10;;
12076;SDS011;12420;42.676;23.262;2023-12-07T07:49:59;11.73;;;8.27;;
12076;SDS011;12420;42.676;23.262;2023-12-07T07:52:30;13.13;;;8.87;;
12076;SDS011;12420;42.676;23.262;2023-12-07T07:54:59;15.33;;;8.17;;
12076;SDS011;12420;42.676;23.262;2023-12-07T07:57:27;8.57;;;7.23;;
12076;SDS011;12420;42.676;23.262;2023-12-07T07:59:55;9.73;;;7.30;;
12076;SDS011;12420;42.676;23.262;2023-12-07T08:02:22;11.07;;;7.90;;
12076;SDS011;12420;42.676;23.262;2023-12-07T08:04:49;6.63;;;5.93;;
12076;SDS011;12420;42.676;23.262;2023-12-07T08:07:17;9.40;;;6.70;;
12076;SDS011;12420;42.676;23.262;2023-12-07T08:09:46;6.90;;;5.83;;
12076;SDS011;12420;42.676;23.262;2023-12-07T08:12:14;7.47;;;5.67;;
12076;SDS011;12420;42.676;23.262;2023-12-07T08:14:41;9.03;;;5.50;;
12076;SDS011;12420;42.676;23.262;2023-12-07T08:17:09;9.03;;;6.53;;
12076;SDS011;12420;42.676;23.262;2023-12-07T08:19:36;5.40;;;4.83;;
12076;SDS011;12420;42.676;23.262;2023-12-07T08:22:04;7.33;;;5.80;;
12076;SDS011;12420;42.676;23.262;2023-12-07T08:24:30;5.80;;;4.93;;
12076;SDS011;12420;42.676;23.262;2023-12-07T08:26:57;6.50;;;5.60;;
12076;SDS011;12420;42.676;23.262;2023-12-07T08:29:25;5.70;;;4.87;;
12076;SDS011;12420;42.676;23.262;2023-12-07T08:31:52;5.10;;;4.60;;
12076;SDS011;12420;42.676;23.262;2023-12-07T08:34:19;5.47;;;4.90;;
12076;SDS011;12420;42.676;23.262;2023-12-07T08:36:45;5.27;;;4.77;;
12076;SDS011;12420;42.676;23.262;2023-12-07T08:39:12;4.73;;;4.33;;
12076;SDS011;12420;42.676;23.262;2023-12-07T08:41:39;5.20;;;4.70;;
12076;SDS011;12420;42.676;23.262;2023-12-07T08:44:06;4.37;;;3.97;;
12076;SDS011;12420;42.676;23.262;2023-12-07T08:46:35;3.93;;;3.53;;
12076;SDS011;12420;42.676;23.262;2023-12-07T08:49:01;6.73;;;4.57;;
12076;SDS011;12420;42.676;23.262;2023-12-07T08:51:28;5.70;;;3.40;;
12076;SDS011;12420;42.676;23.262;2023-12-07T08:53:56;3.47;;;3.17;;
12076;SDS011;12420;42.676;23.262;2023-12-07T08:56:22;4.57;;;4.13;;
12076;SDS011;12420;42.676;23.262;2023-12-07T08:58:50;4.07;;;3.67;;
12076;SDS011;12420;42.676;23.262;2023-12-07T09:01:17;4.67;;;2.80;;
12076;SDS011;12420;42.676;23.262;2023-12-07T09:03:46;3.07;;;2.87;;
12076;SDS011;12420;42.676;23.262;2023-12-07T09:06:12;3.33;;;3.03;;
12076;SDS011;12420;42.676;23.262;2023-12-07T09:08:39;3.60;;;2.90;;
12076;SDS011;12420;42.676;23.262;2023-12-07T09:11:06;3.17;;;2.40;;
12076;SDS011;12420;42.676;23.262;2023-12-07T09:13:33;4.13;;;2.63;;
12076;SDS011;12420;42.676;23.262;2023-12-07T09:15:59;3.97;;;3.00;;
12076;SDS011;12420;42.676;23.262;2023-12-07T09:18:26;3.50;;;3.20;;
12076;SDS011;12420;42.676;23.262;2023-12-07T09:20:54;4.10;;;3.20;;
12076;SDS011;12420;42.676;23.262;2023-12-07T09:23:21;4.37;;;3.73;;
12076;SDS011;12420;42.676;23.262;2023-12-07T09:25:48;3.77;;;3.23;;
12076;SDS011;12420;42.676;23.262;2023-12-07T09:28:14;2.87;;;2.67;;
12076;SDS011;12420;42.676;23.262;2023-12-07T09:30:41;6.67;;;5.20;;
12076;SDS011;12420;42.676;23.262;2023-12-07T09:33:09;2.87;;;2.53;;
12076;SDS011;12420;42.676;23.262;2023-12-07T09:35:35;2.70;;;2.50;;
12076;SDS011;12420;42.676;23.262;2023-12-07T09:38:04;3.17;;;2.83;;
12076;SDS011;12420;42.676;23.262;2023-12-07T09:40:32;3.07;;;2.77;;
12076;SDS011;12420;42.676;23.262;2023-12-07T09:42:58;3.37;;;2.27;;
12076;SDS011;12420;42.676;23.262;2023-12-07T09:45:25;2.87;;;2.27;;
12076;SDS011;12420;42.676;23.262;2023-12-07T09:47:53;3.83;;;2.10;;
12076;SDS011;12420;42.676;23.262;2023-12-07T09:50:20;2.03;;;1.93;;
12076;SDS011;12420;42.676;23.262;2023-12-07T09:52:48;2.20;;;2.00;;
12076;SDS011;12420;42.676;23.262;2023-12-07T09:55:18;3.20;;;1.80;;
12076;SDS011;12420;42.676;23.262;2023-12-07T09:57:47;1.90;;;1.80;;
12076;SDS011;12420;42.676;23.262;2023-12-07T10:00:14;1.63;;;1.53;;
12076;SDS011;12420;42.676;23.262;2023-12-07T10:02:43;2.00;;;1.90;;
12076;SDS011;12420;42.676;23.262;2023-12-07T10:05:12;2.83;;;2.40;;
12076;SDS011;12420;42.676;23.262;2023-12-07T10:07:41;2.17;;;2.07;;
12076;SDS011;12420;42.676;23.262;2023-12-07T10:10:09;2.27;;;2.07;;
12076;SDS011;12420;42.676;23.262;2023-12-07T10:12:45;2.40;;;2.20;;
12076;SDS011;12420;42.676;23.262;2023-12-07T10:15:13;2.37;;;2.03;;
12076;SDS011;12420;42.676;23.262;2023-12-07T10:17:45;2.17;;;1.90;;
12076;SDS011;12420;42.676;23.262;2023-12-07T10:20:14;1.70;;;1.60;;
12076;SDS011;12420;42.676;23.262;2023-12-07T10:22:42;3.80;;;1.93;;
12076;SDS011;12420;42.676;23.262;2023-12-07T10:25:10;1.70;;;1.60;;
12076;SDS011;12420;42.676;23.262;2023-12-07T10:27:37;1.90;;;1.80;;
12076;SDS011;12420;42.676;23.262;2023-12-07T10:30:08;1.50;;;1.47;;
12076;SDS011;12420;42.676;23.262;2023-12-07T10:32:36;1.70;;;1.60;;
12076;SDS011;12420;42.676;23.262;2023-12-07T10:35:04;1.83;;;1.73;;
12076;SDS011;12420;42.676;23.262;2023-12-07T10:37:33;2.03;;;1.87;;
12076;SDS011;12420;42.676;23.262;2023-12-07T10:39:59;2.10;;;2.00;;
12076;SDS011;12420;42.676;23.262;2023-12-07T10:42:26;2.23;;;2.10;;
12076;SDS011;12420;42.676;23.262;2023-12-07T10:44:59;2.37;;;1.90;;
12076;SDS011;12420;42.676;23.262;2023-12-07T10:47:34;4.70;;;1.70;;
12076;SDS011;12420;42.676;23.262;2023-12-07T10:50:04;2.20;;;2.10;;
12076;SDS011;12420;42.676;23.262;2023-12-07T10:52:36;4.00;;;2.67;;
12076;SDS011;12420;42.676;23.262;2023-12-07T10:55:06;2.50;;;2.30;;
12076;SDS011;12420;42.676;23.262;2023-12-07T10:57:36;2.10;;;1.90;;
12076;SDS011;12420;42.676;23.262;2023-12-07T11:00:05;2.47;;;2.27;;
12076;SDS011;12420;42.676;23.262;2023-12-07T11:02:35;6.13;;;4.40;;
12076;SDS011;12420;42.676;23.262;2023-12-07T11:05:04;5.13;;;4.10;;
12076;SDS011;12420;42.676;23.262;2023-12-07T11:07:36;7.03;;;5.47;;
12076;SDS011;12420;42.676;23.262;2023-12-07T11:10:11;4.47;;;4.07;;
12076;SDS011;12420;42.676;23.262;2023-12-07T11:12:45;4.77;;;4.27;;
12076;SDS011;12420;42.676;23.262;2023-12-07T11:15:17;3.70;;;3.40;;
12076;SDS011;12420;42.676;23.262;2023-12-07T11:17:53;2.93;;;2.70;;
12076;SDS011;12420;42.676;23.262;2023-12-07T11:20:21;2.90;;;2.70;;
12076;SDS011;12420;42.676;23.262;2023-12-07T11:22:58;2.43;;;2.23;;
12076;SDS011;12420;42.676;23.262;2023-12-07T11:25:26;3.77;;;2.50;;
12076;SDS011;12420;42.676;23.262;2023-12-07T11:27:59;2.13;;;2.03;;
12076;SDS011;12420;42.676;23.262;2023-12-07T11:30:26;2.40;;;2.20;;
12076;SDS011;12420;42.676;23.262;2023-12-07T11:32:55;5.47;;;4.00;;
12076;SDS011;12420;42.676;23.262;2023-12-07T11:35:22;3.17;;;2.60;;
12076;SDS011;12420;42.676;23.262;2023-12-07T11:38:02;2.63;;;2.40;;
12076;SDS011;12420;42.676;23.262;2023-12-07T11:40:37;5.57;;;3.17;;
12076;SDS011;12420;42.676;23.262;2023-12-07T11:43:07;3.40;;;2.47;;
12076;SDS011;12420;42.676;23.262;2023-12-07T11:45:38;4.30;;;3.30;;
12076;SDS011;12420;42.676;23.262;2023-12-07T11:48:08;3.27;;;2.73;;
12076;SDS011;12420;42.676;23.262;2023-12-07T11:50:35;4.57;;;4.10;;
12076;SDS011;12420;42.676;23.262;2023-12-07T11:53:02;6.50;;;2.80;;
12076;SDS011;12420;42.676;23.262;2023-12-07T11:55:31;10.07;;;6.20;;
12076;SDS011;12420;42.676;23.262;2023-12-07T11:57:58;3.83;;;2.90;;
12076;SDS011;12420;42.676;23.262;2023-12-07T12:00:25;3.63;;;2.30;;
12076;SDS011;12420;42.676;23.262;2023-12-07T12:02:52;3.90;;;2.80;;
12076;SDS011;12420;42.676;23.262;2023-12-07T12:05:20;3.10;;;2.80;;
12076;SDS011;12420;42.676;23.262;2023-12-07T12:07:47;3.63;;;3.13;;
12076;SDS011;12420;42.676;23.262;2023-12-07T12:10:14;4.30;;;3.43;;
12076;SDS011;12420;42.676;23.262;2023-12-07T12:12:40;4.43;;;3.50;;
12076;SDS011;12420;42.676;23.262;2023-12-07T12:15:07;6.40;;;3.00;;
12076;SDS011;12420;42.676;23.262;2023-12-07T12:17:35;3.73;;;3.10;;
12076;SDS011;12420;42.676;23.262;2023-12-07T12:20:03;3.30;;;3.00;;
12076;SDS011;12420;42.676;23.262;2023-12-07T12:22:32;5.13;;;3.20;;
12076;SDS011;12420;42.676;23.262;2023-12-07T12:24:59;5.30;;;3.27;;
12076;SDS011;12420;42.676;23.262;2023-12-07T12:27:25;7.20;;;3.10;;
12076;SDS011;12420;42.676;23.262;2023-12-07T12:29:52;3.73;;;3.10;;
12076;SDS011;12420;42.676;23.262;2023-12-07T12:32:19;6.37;;;5.10;;
12076;SDS011;12420;42.676;23.262;2023-12-07T12:34:50;8.67;;;6.00;;
12076;SDS011;12420;42.676;23.262;2023-12-07T12:37:17;7.53;;;5.27;;
12076;SDS011;12420;42.676;23.262;2023-12-07T12:39:45;6.37;;;5.03;;
12076;SDS011;12420;42.676;23.262;2023-12-07T12:42:12;14.00;;;8.57;;
12076;SDS011;12420;42.676;23.262;2023-12-07T12:44:39;9.27;;;5.43;;
12076;SDS011;12420;42.676;23.262;2023-12-07T12:47:05;5.57;;;4.90;;
12076;SDS011;12420;42.676;23.262;2023-12-07T12:49:34;7.03;;;3.83;;
12076;SDS011;12420;42.676;23.262;2023-12-07T12:52:01;6.30;;;4.23;;
12076;SDS011;12420;42.676;23.262;2023-12-07T12:54:30;8.37;;;5.47;;
12076;SDS011;12420;42.676;23.262;2023-12-07T12:56:59;2.73;;;2.40;;
12076;SDS011;12420;42.676;23.262;2023-12-07T12:59:26;3.50;;;3.20;;
12076;SDS011;12420;42.676;23.262;2023-12-07T13:01:53;5.87;;;3.90;;
12076;SDS011;12420;42.676;23.262;2023-12-07T13:04:20;6.40;;;4.60;;
12076;SDS011;12420;42.676;23.262;2023-12-07T13:06:47;3.73;;;3.13;;
12076;SDS011;12420;42.676;23.262;2023-12-07T13:09:14;4.53;;;3.63;;
12076;SDS011;12420;42.676;23.262;2023-12-07T13:11:42;6.73;;;3.50;;
12076;SDS011;12420;42.676;23.262;2023-12-07T13:14:10;4.70;;;3.10;;
12076;SDS011;12420;42.676;23.262;2023-12-07T13:16:36;8.10;;;4.10;;
12076;SDS011;12420;42.676;23.262;2023-12-07T13:19:03;6.43;;;3.10;;
12076;SDS011;12420;42.676;23.262;2023-12-07T13:21:32;5.70;;;3.43;;
12076;SDS011;12420;42.676;23.262;2023-12-07T13:23:59;5.97;;;4.20;;
12076;SDS011;12420;42.676;23.262;2023-12-07T13:26:25;5.60;;;3.80;;
12076;SDS011;12420;42.676;23.262;2023-12-07T13:28:52;6.10;;;4.23;;
12076;SDS011;12420;42.676;23.262;2023-12-07T13:31:20;6.90;;;4.60;;
12076;SDS011;12420;42.676;23.262;2023-12-07T13:33:47;7.10;;;4.87;;
12076;SDS011;12420;42.676;23.262;2023-12-07T13:36:14;6.37;;;4.33;;
12076;SDS011;12420;42.676;23.262;2023-12-07T13:38:43;4.57;;;4.00;;
12076;SDS011;12420;42.676;23.262;2023-12-07T13:41:09;4.57;;;4.17;;
12076;SDS011;12420;42.676;23.262;2023-12-07T13:43:36;9.70;;;4.90;;
12076;SDS011;12420;42.676;23.262;2023-12-07T13:46:03;4.97;;;4.33;;
12076;SDS011;12420;42.676;23.262;2023-12-07T13:48:31;7.77;;;4.27;;
12076;SDS011;12420;42.676;23.262;2023-12-07T13:50:58;4.47;;;4.03;;
12076;SDS011;12420;42.676;23.262;2023-12-07T13:53:25;12.03;;;7.23;;
12076;SDS011;12420;42.676;23.262;2023-12-07T13:55:51;11.50;;;6.73;;
12076;SDS011;12420;42.676;23.262;2023-12-07T13:58:18;14.17;;;8.27;;
12076;SDS011;12420;42.676;23.262;2023-12-07T14:00:46;11.70;;;7.57;;
12076;SDS011;12420;42.676;23.262;2023-12-07T14:03:13;17.33;;;10.13;;
12076;SDS011;12420;42.676;23.262;2023-12-07T14:05:41;8.17;;;5.57;;
12076;SDS011;12420;42.676;23.262;2023-12-07T14:08:08;10.93;;;6.50;;
12076;SDS011;12420;42.676;23.262;2023-12-07T14:10:35;9.43;;;6.50;;
12076;SDS011;12420;42.676;23.262;2023-12-07T14:13:02;8.53;;;6.67;;
12076;SDS011;12420;42.676;23.262;2023-12-07T14:15:29;8.00;;;6.03;;
12076;SDS011;12420;42.676;23.262;2023-12-07T14:17:57;7.97;;;6.40;;
12076;SDS011;12420;42.676;23.262;2023-12-07T14:20:25;8.23;;;6.80;;
12076;SDS011;12420;42.676;23.262;2023-12-07T14:22:54;8.27;;;6.93;;